This is the latest recevied weather packets stored in our database for station/object HS3PIK-2. If no packets are shown the sender has not sent any weather packets the latest 10 day(s).
| Time | Temp. | Humidity | Pressure | Rain* | Wind** | Luminosity | Snow |
|---|---|---|---|---|---|---|---|
| 1778202285 | 28.89° C | 82% | - | - | - | 0 W/m² | - |
| 1778201960 | 28.33° C | 84% | - | - | - | 0 W/m² | - |
| 1778201635 | 27.78° C | 85% | - | - | - | 0 W/m² | - |
| 1778201302 | 27.22° C | 85% | - | - | - | 0 W/m² | - |
| 1778200625 | 27.78° C | 86% | - | - | - | 0 W/m² | - |
| 1778200300 | 27.22° C | 87% | - | - | - | 0 W/m² | - |
| 1778199970 | 26.67° C | 88% | - | - | - | 0 W/m² | - |
| 1778199274 | 26.67° C | 90% | - | - | - | 0 W/m² | - |
| 1778198946 | 25.56° C | 90% | - | - | - | 0 W/m² | - |
| 1778171345 | 30° C | 73% | - | - | - | 0 W/m² | - |
| 1778171018 | 29.44° C | 72% | - | - | - | 0 W/m² | - |
| 1778170695 | 29.44° C | 72% | - | - | - | 0 W/m² | - |
| 1778170368 | 29.44° C | 71% | - | - | - | 0 W/m² | - |
| 1778170040 | 29.44° C | 70% | - | - | - | 0 W/m² | - |
| 1778169708 | 30° C | 72% | - | - | - | 0 W/m² | - |
| 1778169378 | 30° C | 73% | - | - | - | 0 W/m² | - |
| 1778169048 | 29.44° C | 73% | - | - | - | 0 W/m² | - |
| 1778168724 | 29.44° C | 73% | - | - | - | 0 W/m² | - |
| 1778168723 | 29.44° C | 73% | - | - | - | 0 W/m² | - |
| 1778168395 | 29.44° C | 74% | - | - | - | 0 W/m² | - |
| 1778168211 | 29.44° C | 74% | - | - | - | 0 W/m² | - |
| 1778168068 | 29.44° C | 74% | - | - | - | 0 W/m² | - |
| 1778167741 | 29.44° C | 73% | - | - | - | 0 W/m² | - |
| 1778167410 | 30° C | 77% | - | - | - | 0 W/m² | - |
| 1778167083 | 29.44° C | 78% | - | - | - | 0 W/m² | - |
* Rain since midnight (hover to see other rain measurements)
** Current wind speed in m/s (hover to see current wind gust speed)